sensor_id;sensor_type;location;lat;lon;timestamp;P1;durP1;ratioP1;P2;durP2;ratioP2
5543;SDS011;2795;47.652;13.128;2023-08-01T00:00:08;9.13;;;5.60;;
5543;SDS011;2795;47.652;13.128;2023-08-01T00:02:35;9.30;;;5.17;;
5543;SDS011;2795;47.652;13.128;2023-08-01T00:05:03;8.40;;;5.50;;
5543;SDS011;2795;47.652;13.128;2023-08-01T00:07:30;12.80;;;5.13;;
5543;SDS011;2795;47.652;13.128;2023-08-01T00:09:59;10.37;;;6.17;;
5543;SDS011;2795;47.652;13.128;2023-08-01T00:12:26;10.60;;;5.40;;
5543;SDS011;2795;47.652;13.128;2023-08-01T00:14:53;15.60;;;5.57;;
5543;SDS011;2795;47.652;13.128;2023-08-01T00:17:20;19.20;;;5.67;;
5543;SDS011;2795;47.652;13.128;2023-08-01T00:19:47;6.83;;;4.90;;
5543;SDS011;2795;47.652;13.128;2023-08-01T00:22:14;9.80;;;4.87;;
5543;SDS011;2795;47.652;13.128;2023-08-01T00:24:40;6.70;;;4.30;;
5543;SDS011;2795;47.652;13.128;2023-08-01T00:27:07;13.70;;;6.20;;
5543;SDS011;2795;47.652;13.128;2023-08-01T00:29:36;11.07;;;5.20;;
5543;SDS011;2795;47.652;13.128;2023-08-01T00:32:03;8.67;;;5.37;;
5543;SDS011;2795;47.652;13.128;2023-08-01T00:34:29;11.63;;;5.90;;
5543;SDS011;2795;47.652;13.128;2023-08-01T00:36:56;14.67;;;6.00;;
5543;SDS011;2795;47.652;13.128;2023-08-01T00:39:23;12.47;;;5.37;;
5543;SDS011;2795;47.652;13.128;2023-08-01T00:41:50;7.70;;;5.33;;
5543;SDS011;2795;47.652;13.128;2023-08-01T00:44:17;9.73;;;5.20;;
5543;SDS011;2795;47.652;13.128;2023-08-01T00:46:43;20.70;;;6.20;;
5543;SDS011;2795;47.652;13.128;2023-08-01T00:49:11;10.03;;;5.63;;
5543;SDS011;2795;47.652;13.128;2023-08-01T00:51:38;10.87;;;5.93;;
5543;SDS011;2795;47.652;13.128;2023-08-01T00:54:04;20.60;;;7.97;;
5543;SDS011;2795;47.652;13.128;2023-08-01T00:56:31;12.90;;;6.70;;
5543;SDS011;2795;47.652;13.128;2023-08-01T00:58:58;9.27;;;5.33;;
5543;SDS011;2795;47.652;13.128;2023-08-01T01:01:25;15.40;;;7.30;;
5543;SDS011;2795;47.652;13.128;2023-08-01T01:03:51;8.93;;;5.70;;
5543;SDS011;2795;47.652;13.128;2023-08-01T01:06:28;9.70;;;5.93;;
5543;SDS011;2795;47.652;13.128;2023-08-01T01:08:59;14.17;;;5.63;;
5543;SDS011;2795;47.652;13.128;2023-08-01T01:11:25;11.07;;;5.70;;
5543;SDS011;2795;47.652;13.128;2023-08-01T01:13:52;10.37;;;5.10;;
5543;SDS011;2795;47.652;13.128;2023-08-01T01:16:20;13.37;;;6.17;;
5543;SDS011;2795;47.652;13.128;2023-08-01T01:18:47;9.23;;;5.33;;
5543;SDS011;2795;47.652;13.128;2023-08-01T01:21:32;10.80;;;6.00;;
5543;SDS011;2795;47.652;13.128;2023-08-01T01:24:43;12.57;;;6.30;;
5543;SDS011;2795;47.652;13.128;2023-08-01T01:27:10;8.87;;;5.37;;
5543;SDS011;2795;47.652;13.128;2023-08-01T01:29:38;10.33;;;5.90;;
5543;SDS011;2795;47.652;13.128;2023-08-01T01:32:06;10.80;;;6.03;;
5543;SDS011;2795;47.652;13.128;2023-08-01T01:34:34;11.90;;;6.10;;
5543;SDS011;2795;47.652;13.128;2023-08-01T01:37:00;10.73;;;6.13;;
5543;SDS011;2795;47.652;13.128;2023-08-01T01:39:27;11.27;;;6.23;;
5543;SDS011;2795;47.652;13.128;2023-08-01T01:41:53;11.43;;;6.23;;
5543;SDS011;2795;47.652;13.128;2023-08-01T01:44:20;14.07;;;5.23;;
5543;SDS011;2795;47.652;13.128;2023-08-01T01:46:47;12.30;;;6.10;;
5543;SDS011;2795;47.652;13.128;2023-08-01T01:49:16;12.23;;;7.70;;
5543;SDS011;2795;47.652;13.128;2023-08-01T01:51:42;14.43;;;6.93;;
5543;SDS011;2795;47.652;13.128;2023-08-01T01:54:09;12.13;;;6.97;;
5543;SDS011;2795;47.652;13.128;2023-08-01T01:56:36;10.73;;;6.10;;
5543;SDS011;2795;47.652;13.128;2023-08-01T01:59:03;16.30;;;6.43;;
5543;SDS011;2795;47.652;13.128;2023-08-01T02:01:30;10.13;;;5.07;;
5543;SDS011;2795;47.652;13.128;2023-08-01T02:03:56;10.90;;;5.27;;
5543;SDS011;2795;47.652;13.128;2023-08-01T02:06:23;9.60;;;5.80;;
5543;SDS011;2795;47.652;13.128;2023-08-01T02:08:49;9.63;;;5.57;;
5543;SDS011;2795;47.652;13.128;2023-08-01T02:11:16;7.07;;;4.87;;
5543;SDS011;2795;47.652;13.128;2023-08-01T02:13:42;13.33;;;6.00;;
5543;SDS011;2795;47.652;13.128;2023-08-01T02:16:09;11.40;;;6.20;;
5543;SDS011;2795;47.652;13.128;2023-08-01T02:18:37;11.10;;;5.67;;
5543;SDS011;2795;47.652;13.128;2023-08-01T02:21:04;11.00;;;5.77;;
5543;SDS011;2795;47.652;13.128;2023-08-01T02:23:30;8.93;;;5.50;;
5543;SDS011;2795;47.652;13.128;2023-08-01T02:25:58;8.77;;;5.50;;
5543;SDS011;2795;47.652;13.128;2023-08-01T02:28:24;8.40;;;5.27;;
5543;SDS011;2795;47.652;13.128;2023-08-01T02:30:51;8.53;;;4.50;;
5543;SDS011;2795;47.652;13.128;2023-08-01T02:33:18;9.13;;;4.87;;
5543;SDS011;2795;47.652;13.128;2023-08-01T02:35:46;9.67;;;5.40;;
5543;SDS011;2795;47.652;13.128;2023-08-01T02:38:13;10.80;;;6.27;;
5543;SDS011;2795;47.652;13.128;2023-08-01T02:40:39;13.93;;;9.27;;
5543;SDS011;2795;47.652;13.128;2023-08-01T02:43:06;14.23;;;8.10;;
5543;SDS011;2795;47.652;13.128;2023-08-01T02:45:32;12.30;;;7.37;;
5543;SDS011;2795;47.652;13.128;2023-08-01T02:47:59;13.67;;;6.73;;
5543;SDS011;2795;47.652;13.128;2023-08-01T02:50:26;12.00;;;5.90;;
5543;SDS011;2795;47.652;13.128;2023-08-01T02:52:53;14.73;;;6.40;;
5543;SDS011;2795;47.652;13.128;2023-08-01T02:55:19;8.33;;;5.60;;
5543;SDS011;2795;47.652;13.128;2023-08-01T02:57:46;12.50;;;5.97;;
5543;SDS011;2795;47.652;13.128;2023-08-01T03:00:13;7.03;;;5.20;;
5543;SDS011;2795;47.652;13.128;2023-08-01T03:02:40;12.17;;;6.10;;
5543;SDS011;2795;47.652;13.128;2023-08-01T03:05:07;17.20;;;6.30;;
5543;SDS011;2795;47.652;13.128;2023-08-01T03:07:34;9.50;;;6.37;;
5543;SDS011;2795;47.652;13.128;2023-08-01T03:10:01;11.40;;;5.53;;
5543;SDS011;2795;47.652;13.128;2023-08-01T03:12:28;10.57;;;6.10;;
5543;SDS011;2795;47.652;13.128;2023-08-01T03:14:55;13.00;;;6.30;;
5543;SDS011;2795;47.652;13.128;2023-08-01T03:17:21;14.60;;;5.83;;
5543;SDS011;2795;47.652;13.128;2023-08-01T03:19:48;15.40;;;6.90;;
5543;SDS011;2795;47.652;13.128;2023-08-01T03:22:15;10.87;;;5.47;;
5543;SDS011;2795;47.652;13.128;2023-08-01T03:24:42;13.00;;;6.50;;
5543;SDS011;2795;47.652;13.128;2023-08-01T03:27:09;16.53;;;6.10;;
5543;SDS011;2795;47.652;13.128;2023-08-01T03:29:36;15.83;;;6.77;;
5543;SDS011;2795;47.652;13.128;2023-08-01T03:32:03;13.30;;;7.30;;
5543;SDS011;2795;47.652;13.128;2023-08-01T03:34:30;17.20;;;7.40;;
5543;SDS011;2795;47.652;13.128;2023-08-01T03:36:57;15.00;;;6.40;;
5543;SDS011;2795;47.652;13.128;2023-08-01T03:39:24;11.83;;;6.90;;
5543;SDS011;2795;47.652;13.128;2023-08-01T03:41:50;10.60;;;6.53;;
5543;SDS011;2795;47.652;13.128;2023-08-01T03:44:17;11.17;;;6.63;;
5543;SDS011;2795;47.652;13.128;2023-08-01T03:46:44;14.27;;;6.80;;
5543;SDS011;2795;47.652;13.128;2023-08-01T03:49:11;14.90;;;7.80;;
5543;SDS011;2795;47.652;13.128;2023-08-01T03:51:37;12.53;;;7.30;;
5543;SDS011;2795;47.652;13.128;2023-08-01T03:54:04;17.63;;;7.60;;
5543;SDS011;2795;47.652;13.128;2023-08-01T03:56:38;15.90;;;7.03;;
5543;SDS011;2795;47.652;13.128;2023-08-01T03:59:10;9.20;;;6.70;;
5543;SDS011;2795;47.652;13.128;2023-08-01T04:01:41;17.23;;;6.20;;
5543;SDS011;2795;47.652;13.128;2023-08-01T04:04:08;11.93;;;6.73;;
5543;SDS011;2795;47.652;13.128;2023-08-01T04:06:35;12.07;;;6.30;;
5543;SDS011;2795;47.652;13.128;2023-08-01T04:09:02;19.20;;;6.50;;
5543;SDS011;2795;47.652;13.128;2023-08-01T04:11:29;9.17;;;5.80;;
5543;SDS011;2795;47.652;13.128;2023-08-01T04:13:56;10.77;;;6.17;;
5543;SDS011;2795;47.652;13.128;2023-08-01T04:16:22;8.93;;;5.87;;
5543;SDS011;2795;47.652;13.128;2023-08-01T04:18:49;9.20;;;5.70;;
5543;SDS011;2795;47.652;13.128;2023-08-01T04:21:16;16.90;;;6.83;;
5543;SDS011;2795;47.652;13.128;2023-08-01T04:23:42;12.73;;;6.10;;
5543;SDS011;2795;47.652;13.128;2023-08-01T04:26:09;11.27;;;5.80;;
5543;SDS011;2795;47.652;13.128;2023-08-01T04:28:35;9.37;;;6.00;;
5543;SDS011;2795;47.652;13.128;2023-08-01T04:31:02;16.50;;;7.17;;
5543;SDS011;2795;47.652;13.128;2023-08-01T04:33:29;12.57;;;6.00;;
5543;SDS011;2795;47.652;13.128;2023-08-01T04:35:56;9.37;;;6.20;;
5543;SDS011;2795;47.652;13.128;2023-08-01T04:38:22;9.83;;;6.13;;
5543;SDS011;2795;47.652;13.128;2023-08-01T04:40:49;8.87;;;5.63;;
5543;SDS011;2795;47.652;13.128;2023-08-01T04:43:16;9.63;;;5.70;;
5543;SDS011;2795;47.652;13.128;2023-08-01T04:45:43;11.20;;;6.47;;
5543;SDS011;2795;47.652;13.128;2023-08-01T04:48:09;13.53;;;7.03;;
5543;SDS011;2795;47.652;13.128;2023-08-01T04:50:36;10.93;;;5.80;;
5543;SDS011;2795;47.652;13.128;2023-08-01T04:53:03;14.33;;;7.03;;
5543;SDS011;2795;47.652;13.128;2023-08-01T04:55:30;13.53;;;6.27;;
5543;SDS011;2795;47.652;13.128;2023-08-01T04:57:56;8.30;;;4.80;;
5543;SDS011;2795;47.652;13.128;2023-08-01T05:00:23;8.53;;;4.80;;
5543;SDS011;2795;47.652;13.128;2023-08-01T05:02:50;7.60;;;5.17;;
5543;SDS011;2795;47.652;13.128;2023-08-01T05:05:17;7.73;;;5.50;;
5543;SDS011;2795;47.652;13.128;2023-08-01T05:07:43;8.53;;;5.90;;
5543;SDS011;2795;47.652;13.128;2023-08-01T05:10:10;10.20;;;5.73;;
5543;SDS011;2795;47.652;13.128;2023-08-01T05:12:37;11.03;;;5.60;;
5543;SDS011;2795;47.652;13.128;2023-08-01T05:15:04;12.90;;;5.80;;
5543;SDS011;2795;47.652;13.128;2023-08-01T05:17:31;18.57;;;8.17;;
5543;SDS011;2795;47.652;13.128;2023-08-01T05:19:58;11.00;;;6.70;;
5543;SDS011;2795;47.652;13.128;2023-08-01T05:22:25;12.23;;;6.87;;
5543;SDS011;2795;47.652;13.128;2023-08-01T05:24:51;14.37;;;7.20;;
5543;SDS011;2795;47.652;13.128;2023-08-01T05:27:18;13.70;;;8.13;;
5543;SDS011;2795;47.652;13.128;2023-08-01T05:29:45;17.00;;;6.73;;
5543;SDS011;2795;47.652;13.128;2023-08-01T05:32:11;13.33;;;7.43;;
5543;SDS011;2795;47.652;13.128;2023-08-01T05:34:38;14.13;;;6.80;;
5543;SDS011;2795;47.652;13.128;2023-08-01T05:37:05;13.57;;;5.60;;
5543;SDS011;2795;47.652;13.128;2023-08-01T05:39:32;15.80;;;6.47;;
5543;SDS011;2795;47.652;13.128;2023-08-01T05:41:58;12.87;;;5.63;;
5543;SDS011;2795;47.652;13.128;2023-08-01T05:44:25;10.57;;;5.70;;
5543;SDS011;2795;47.652;13.128;2023-08-01T05:46:51;9.83;;;6.10;;
5543;SDS011;2795;47.652;13.128;2023-08-01T05:49:18;12.47;;;5.43;;
5543;SDS011;2795;47.652;13.128;2023-08-01T05:51:45;13.10;;;6.83;;
5543;SDS011;2795;47.652;13.128;2023-08-01T05:54:11;15.40;;;5.80;;
5543;SDS011;2795;47.652;13.128;2023-08-01T05:56:38;12.67;;;5.53;;
5543;SDS011;2795;47.652;13.128;2023-08-01T05:59:05;8.43;;;5.83;;
5543;SDS011;2795;47.652;13.128;2023-08-01T06:01:32;8.00;;;5.97;;
5543;SDS011;2795;47.652;13.128;2023-08-01T06:03:59;10.73;;;6.50;;
5543;SDS011;2795;47.652;13.128;2023-08-01T06:06:26;8.73;;;6.27;;
5543;SDS011;2795;47.652;13.128;2023-08-01T06:08:53;17.23;;;6.60;;
5543;SDS011;2795;47.652;13.128;2023-08-01T06:11:20;13.57;;;6.90;;
5543;SDS011;2795;47.652;13.128;2023-08-01T06:13:47;11.23;;;6.67;;
5543;SDS011;2795;47.652;13.128;2023-08-01T06:16:13;15.73;;;6.70;;
5543;SDS011;2795;47.652;13.128;2023-08-01T06:18:40;9.33;;;6.40;;
5543;SDS011;2795;47.652;13.128;2023-08-01T06:21:07;10.90;;;7.33;;
5543;SDS011;2795;47.652;13.128;2023-08-01T06:23:33;11.80;;;5.80;;
5543;SDS011;2795;47.652;13.128;2023-08-01T06:26:00;9.03;;;6.00;;
5543;SDS011;2795;47.652;13.128;2023-08-01T06:28:26;11.67;;;5.80;;
5543;SDS011;2795;47.652;13.128;2023-08-01T06:30:53;18.60;;;6.90;;
5543;SDS011;2795;47.652;13.128;2023-08-01T06:33:20;14.10;;;6.67;;
5543;SDS011;2795;47.652;13.128;2023-08-01T06:35:47;12.83;;;6.90;;
5543;SDS011;2795;47.652;13.128;2023-08-01T06:38:13;18.13;;;7.60;;
5543;SDS011;2795;47.652;13.128;2023-08-01T06:40:40;15.83;;;7.50;;
5543;SDS011;2795;47.652;13.128;2023-08-01T06:43:07;10.20;;;6.60;;
5543;SDS011;2795;47.652;13.128;2023-08-01T06:45:33;15.10;;;6.73;;
5543;SDS011;2795;47.652;13.128;2023-08-01T06:48:00;12.67;;;7.13;;
5543;SDS011;2795;47.652;13.128;2023-08-01T06:50:27;13.27;;;7.50;;
5543;SDS011;2795;47.652;13.128;2023-08-01T06:52:53;14.87;;;7.17;;
5543;SDS011;2795;47.652;13.128;2023-08-01T06:55:20;11.90;;;6.50;;
5543;SDS011;2795;47.652;13.128;2023-08-01T06:57:47;13.57;;;7.23;;
5543;SDS011;2795;47.652;13.128;2023-08-01T07:00:14;11.30;;;6.33;;
5543;SDS011;2795;47.652;13.128;2023-08-01T07:02:40;11.93;;;6.60;;
5543;SDS011;2795;47.652;13.128;2023-08-01T07:05:07;11.30;;;6.50;;
5543;SDS011;2795;47.652;13.128;2023-08-01T07:07:34;10.87;;;6.60;;
5543;SDS011;2795;47.652;13.128;2023-08-01T07:10:01;9.97;;;6.50;;
5543;SDS011;2795;47.652;13.128;2023-08-01T07:12:28;16.97;;;6.90;;
5543;SDS011;2795;47.652;13.128;2023-08-01T07:14:54;9.30;;;5.37;;
5543;SDS011;2795;47.652;13.128;2023-08-01T07:17:21;11.87;;;5.50;;
5543;SDS011;2795;47.652;13.128;2023-08-01T07:19:48;14.50;;;6.30;;
5543;SDS011;2795;47.652;13.128;2023-08-01T07:22:15;16.33;;;7.27;;
5543;SDS011;2795;47.652;13.128;2023-08-01T07:24:41;12.73;;;6.50;;
5543;SDS011;2795;47.652;13.128;2023-08-01T07:27:08;11.80;;;6.07;;
5543;SDS011;2795;47.652;13.128;2023-08-01T07:29:35;12.13;;;5.67;;
5543;SDS011;2795;47.652;13.128;2023-08-01T07:32:03;12.23;;;6.40;;
5543;SDS011;2795;47.652;13.128;2023-08-01T07:34:30;12.10;;;6.47;;
5543;SDS011;2795;47.652;13.128;2023-08-01T07:36:56;16.03;;;7.20;;
5543;SDS011;2795;47.652;13.128;2023-08-01T07:39:23;12.17;;;6.60;;
5543;SDS011;2795;47.652;13.128;2023-08-01T07:41:50;11.67;;;6.83;;
5543;SDS011;2795;47.652;13.128;2023-08-01T07:44:17;23.40;;;8.20;;
5543;SDS011;2795;47.652;13.128;2023-08-01T07:46:43;14.30;;;6.70;;
5543;SDS011;2795;47.652;13.128;2023-08-01T07:49:10;14.10;;;6.80;;
5543;SDS011;2795;47.652;13.128;2023-08-01T07:51:36;14.93;;;6.97;;
5543;SDS011;2795;47.652;13.128;2023-08-01T07:54:03;12.10;;;5.73;;
5543;SDS011;2795;47.652;13.128;2023-08-01T07:56:30;14.60;;;7.07;;
5543;SDS011;2795;47.652;13.128;2023-08-01T07:58:56;14.33;;;6.27;;
5543;SDS011;2795;47.652;13.128;2023-08-01T08:01:23;13.80;;;6.43;;
5543;SDS011;2795;47.652;13.128;2023-08-01T08:03:50;17.40;;;6.30;;
5543;SDS011;2795;47.652;13.128;2023-08-01T08:06:18;13.90;;;6.07;;
5543;SDS011;2795;47.652;13.128;2023-08-01T08:08:47;10.10;;;5.87;;
5543;SDS011;2795;47.652;13.128;2023-08-01T08:11:14;13.73;;;6.00;;
5543;SDS011;2795;47.652;13.128;2023-08-01T08:13:42;12.97;;;6.10;;
5543;SDS011;2795;47.652;13.128;2023-08-01T08:16:09;10.67;;;5.67;;
5543;SDS011;2795;47.652;13.128;2023-08-01T08:18:36;11.97;;;5.90;;
5543;SDS011;2795;47.652;13.128;2023-08-01T08:21:02;10.03;;;6.37;;
5543;SDS011;2795;47.652;13.128;2023-08-01T08:23:29;10.00;;;6.40;;
5543;SDS011;2795;47.652;13.128;2023-08-01T08:25:56;10.83;;;6.73;;
5543;SDS011;2795;47.652;13.128;2023-08-01T08:28:29;14.87;;;6.40;;
5543;SDS011;2795;47.652;13.128;2023-08-01T08:30:57;11.10;;;5.90;;
5543;SDS011;2795;47.652;13.128;2023-08-01T08:33:24;11.20;;;6.87;;
5543;SDS011;2795;47.652;13.128;2023-08-01T08:35:51;11.47;;;6.70;;
5543;SDS011;2795;47.652;13.128;2023-08-01T08:38:17;11.90;;;6.40;;
5543;SDS011;2795;47.652;13.128;2023-08-01T08:43:36;15.63;;;7.87;;
5543;SDS011;2795;47.652;13.128;2023-08-01T08:46:04;13.33;;;7.60;;
5543;SDS011;2795;47.652;13.128;2023-08-01T08:48:32;13.00;;;6.67;;
5543;SDS011;2795;47.652;13.128;2023-08-01T08:51:00;10.23;;;6.00;;
5543;SDS011;2795;47.652;13.128;2023-08-01T08:53:30;8.40;;;4.93;;
5543;SDS011;2795;47.652;13.128;2023-08-01T08:55:57;9.30;;;5.90;;
5543;SDS011;2795;47.652;13.128;2023-08-01T08:58:25;10.40;;;5.87;;
5543;SDS011;2795;47.652;13.128;2023-08-01T09:00:52;11.23;;;5.80;;
5543;SDS011;2795;47.652;13.128;2023-08-01T09:03:19;10.93;;;6.03;;
5543;SDS011;2795;47.652;13.128;2023-08-01T09:05:54;12.40;;;6.33;;
5543;SDS011;2795;47.652;13.128;2023-08-01T09:08:29;10.13;;;5.90;;
5543;SDS011;2795;47.652;13.128;2023-08-01T09:10:59;7.50;;;5.30;;
5543;SDS011;2795;47.652;13.128;2023-08-01T09:13:25;9.63;;;5.93;;
5543;SDS011;2795;47.652;13.128;2023-08-01T09:15:52;12.80;;;6.90;;
5543;SDS011;2795;47.652;13.128;2023-08-01T09:18:19;13.90;;;6.30;;
5543;SDS011;2795;47.652;13.128;2023-08-01T09:20:47;14.10;;;7.57;;
5543;SDS011;2795;47.652;13.128;2023-08-01T09:23:14;17.60;;;8.67;;
5543;SDS011;2795;47.652;13.128;2023-08-01T09:25:44;14.77;;;7.43;;
5543;SDS011;2795;47.652;13.128;2023-08-01T09:28:29;17.40;;;7.53;;
5543;SDS011;2795;47.652;13.128;2023-08-01T09:30:56;11.47;;;6.17;;
5543;SDS011;2795;47.652;13.128;2023-08-01T09:33:24;11.13;;;6.67;;
5543;SDS011;2795;47.652;13.128;2023-08-01T09:35:51;11.63;;;7.13;;
5543;SDS011;2795;47.652;13.128;2023-08-01T09:38:19;10.60;;;6.30;;
5543;SDS011;2795;47.652;13.128;2023-08-01T09:40:47;19.13;;;7.87;;
5543;SDS011;2795;47.652;13.128;2023-08-01T09:43:14;14.37;;;7.30;;
5543;SDS011;2795;47.652;13.128;2023-08-01T09:45:53;9.80;;;6.20;;
5543;SDS011;2795;47.652;13.128;2023-08-01T09:48:22;13.03;;;6.83;;
5543;SDS011;2795;47.652;13.128;2023-08-01T09:50:50;13.40;;;6.67;;
5543;SDS011;2795;47.652;13.128;2023-08-01T09:53:16;10.63;;;5.57;;
5543;SDS011;2795;47.652;13.128;2023-08-01T09:55:43;14.07;;;6.30;;
5543;SDS011;2795;47.652;13.128;2023-08-01T09:58:12;12.50;;;6.10;;
5543;SDS011;2795;47.652;13.128;2023-08-01T10:00:40;10.33;;;6.17;;
5543;SDS011;2795;47.652;13.128;2023-08-01T10:03:06;8.77;;;5.80;;
5543;SDS011;2795;47.652;13.128;2023-08-01T10:05:34;9.10;;;5.80;;
5543;SDS011;2795;47.652;13.128;2023-08-01T10:08:02;10.00;;;5.03;;
5543;SDS011;2795;47.652;13.128;2023-08-01T10:10:29;6.30;;;5.27;;
5543;SDS011;2795;47.652;13.128;2023-08-01T10:12:56;8.93;;;6.03;;
5543;SDS011;2795;47.652;13.128;2023-08-01T10:15:23;14.17;;;6.50;;
5543;SDS011;2795;47.652;13.128;2023-08-01T10:17:52;12.10;;;6.43;;
5543;SDS011;2795;47.652;13.128;2023-08-01T10:20:20;12.03;;;6.30;;
5543;SDS011;2795;47.652;13.128;2023-08-01T10:22:48;9.23;;;6.00;;
5543;SDS011;2795;47.652;13.128;2023-08-01T10:25:16;10.17;;;6.10;;
5543;SDS011;2795;47.652;13.128;2023-08-01T10:27:44;11.80;;;5.93;;
5543;SDS011;2795;47.652;13.128;2023-08-01T10:30:10;12.17;;;5.33;;
5543;SDS011;2795;47.652;13.128;2023-08-01T10:32:38;7.33;;;5.07;;
5543;SDS011;2795;47.652;13.128;2023-08-01T10:35:05;12.23;;;6.00;;
5543;SDS011;2795;47.652;13.128;2023-08-01T10:37:42;10.60;;;5.47;;
5543;SDS011;2795;47.652;13.128;2023-08-01T10:40:09;11.83;;;5.87;;
5543;SDS011;2795;47.652;13.128;2023-08-01T10:42:41;8.73;;;4.83;;
5543;SDS011;2795;47.652;13.128;2023-08-01T10:45:22;10.20;;;5.00;;
5543;SDS011;2795;47.652;13.128;2023-08-01T10:47:51;12.57;;;5.57;;
5543;SDS011;2795;47.652;13.128;2023-08-01T10:50:18;15.73;;;5.30;;
5543;SDS011;2795;47.652;13.128;2023-08-01T10:52:45;19.13;;;5.63;;
5543;SDS011;2795;47.652;13.128;2023-08-01T10:55:12;9.97;;;5.13;;
5543;SDS011;2795;47.652;13.128;2023-08-01T10:57:40;6.60;;;4.60;;
5543;SDS011;2795;47.652;13.128;2023-08-01T11:00:17;6.97;;;5.00;;
5543;SDS011;2795;47.652;13.128;2023-08-01T11:02:50;16.80;;;5.77;;
5543;SDS011;2795;47.652;13.128;2023-08-01T11:05:20;9.67;;;5.23;;
5543;SDS011;2795;47.652;13.128;2023-08-01T11:07:53;9.50;;;4.70;;
5543;SDS011;2795;47.652;13.128;2023-08-01T11:10:27;8.97;;;5.13;;
5543;SDS011;2795;47.652;13.128;2023-08-01T11:12:55;8.23;;;4.50;;
5543;SDS011;2795;47.652;13.128;2023-08-01T11:15:22;12.10;;;5.00;;
5543;SDS011;2795;47.652;13.128;2023-08-01T11:17:50;36.77;;;20.50;;
5543;SDS011;2795;47.652;13.128;2023-08-01T11:20:19;40.17;;;21.50;;
5543;SDS011;2795;47.652;13.128;2023-08-01T11:25:35;35.40;;;17.40;;
5543;SDS011;2795;47.652;13.128;2023-08-01T11:28:15;14.50;;;8.17;;
5543;SDS011;2795;47.652;13.128;2023-08-01T11:30:43;21.03;;;9.47;;
5543;SDS011;2795;47.652;13.128;2023-08-01T11:33:22;11.93;;;5.97;;
5543;SDS011;2795;47.652;13.128;2023-08-01T11:35:53;20.30;;;9.97;;
5543;SDS011;2795;47.652;13.128;2023-08-01T11:38:24;15.73;;;7.30;;
5543;SDS011;2795;47.652;13.128;2023-08-01T11:40:52;11.90;;;6.30;;
5543;SDS011;2795;47.652;13.128;2023-08-01T11:43:19;15.30;;;6.50;;
5543;SDS011;2795;47.652;13.128;2023-08-01T11:45:49;13.43;;;7.13;;
5543;SDS011;2795;47.652;13.128;2023-08-01T11:48:22;12.40;;;6.47;;
5543;SDS011;2795;47.652;13.128;2023-08-01T11:50:49;18.60;;;6.37;;
5543;SDS011;2795;47.652;13.128;2023-08-01T11:53:23;8.03;;;5.20;;
5543;SDS011;2795;47.652;13.128;2023-08-01T11:55:50;10.53;;;5.70;;
5543;SDS011;2795;47.652;13.128;2023-08-01T11:58:32;10.20;;;4.93;;
5543;SDS011;2795;47.652;13.128;2023-08-01T12:03:30;13.53;;;5.73;;
5543;SDS011;2795;47.652;13.128;2023-08-01T12:06:04;9.53;;;4.70;;
5543;SDS011;2795;47.652;13.128;2023-08-01T12:08:32;6.87;;;4.67;;
5543;SDS011;2795;47.652;13.128;2023-08-01T12:10:59;14.73;;;5.80;;
5543;SDS011;2795;47.652;13.128;2023-08-01T12:13:26;11.93;;;4.33;;
5543;SDS011;2795;47.652;13.128;2023-08-01T12:15:55;9.87;;;4.63;;
5543;SDS011;2795;47.652;13.128;2023-08-01T12:18:26;13.33;;;5.17;;
5543;SDS011;2795;47.652;13.128;2023-08-01T12:21:14;6.40;;;4.10;;
5543;SDS011;2795;47.652;13.128;2023-08-01T12:23:40;7.93;;;4.27;;
5543;SDS011;2795;47.652;13.128;2023-08-01T12:26:07;8.40;;;4.90;;
5543;SDS011;2795;47.652;13.128;2023-08-01T12:28:35;13.00;;;5.87;;
5543;SDS011;2795;47.652;13.128;2023-08-01T12:31:02;8.70;;;4.80;;
5543;SDS011;2795;47.652;13.128;2023-08-01T12:33:30;9.97;;;5.27;;
5543;SDS011;2795;47.652;13.128;2023-08-01T12:35:57;9.47;;;5.10;;
5543;SDS011;2795;47.652;13.128;2023-08-01T12:38:23;7.50;;;4.47;;
5543;SDS011;2795;47.652;13.128;2023-08-01T12:40:50;11.70;;;4.60;;
5543;SDS011;2795;47.652;13.128;2023-08-01T12:43:17;7.60;;;5.10;;
5543;SDS011;2795;47.652;13.128;2023-08-01T12:45:44;9.07;;;5.00;;
5543;SDS011;2795;47.652;13.128;2023-08-01T12:48:14;17.43;;;6.63;;
5543;SDS011;2795;47.652;13.128;2023-08-01T12:50:47;8.90;;;4.70;;
5543;SDS011;2795;47.652;13.128;2023-08-01T12:53:14;6.30;;;4.77;;
5543;SDS011;2795;47.652;13.128;2023-08-01T12:55:45;12.13;;;5.80;;
5543;SDS011;2795;47.652;13.128;2023-08-01T12:58:12;13.03;;;5.00;;
5543;SDS011;2795;47.652;13.128;2023-08-01T13:00:40;8.60;;;5.60;;
5543;SDS011;2795;47.652;13.128;2023-08-01T13:03:07;10.87;;;5.40;;
5543;SDS011;2795;47.652;13.128;2023-08-01T13:05:34;9.80;;;5.20;;
5543;SDS011;2795;47.652;13.128;2023-08-01T13:08:02;23.47;;;7.10;;
5543;SDS011;2795;47.652;13.128;2023-08-01T13:10:32;8.87;;;4.90;;
5543;SDS011;2795;47.652;13.128;2023-08-01T13:12:59;18.93;;;5.60;;
5543;SDS011;2795;47.652;13.128;2023-08-01T13:15:26;6.90;;;4.10;;
5543;SDS011;2795;47.652;13.128;2023-08-01T13:17:53;7.97;;;4.53;;
5543;SDS011;2795;47.652;13.128;2023-08-01T13:20:20;10.40;;;5.23;;
5543;SDS011;2795;47.652;13.128;2023-08-01T13:22:48;14.70;;;5.17;;
5543;SDS011;2795;47.652;13.128;2023-08-01T13:25:16;8.07;;;4.80;;
5543;SDS011;2795;47.652;13.128;2023-08-01T13:27:44;7.40;;;4.47;;
5543;SDS011;2795;47.652;13.128;2023-08-01T13:30:10;12.30;;;5.33;;
5543;SDS011;2795;47.652;13.128;2023-08-01T13:32:40;8.10;;;4.83;;
5543;SDS011;2795;47.652;13.128;2023-08-01T13:35:08;10.20;;;4.90;;
5543;SDS011;2795;47.652;13.128;2023-08-01T13:37:35;10.57;;;4.53;;
5543;SDS011;2795;47.652;13.128;2023-08-01T13:40:02;11.07;;;4.13;;
5543;SDS011;2795;47.652;13.128;2023-08-01T13:42:29;14.43;;;4.30;;
5543;SDS011;2795;47.652;13.128;2023-08-01T13:44:56;8.80;;;4.20;;
5543;SDS011;2795;47.652;13.128;2023-08-01T13:47:23;10.60;;;4.87;;
5543;SDS011;2795;47.652;13.128;2023-08-01T13:49:50;9.50;;;4.30;;
5543;SDS011;2795;47.652;13.128;2023-08-01T13:52:17;6.30;;;4.20;;
5543;SDS011;2795;47.652;13.128;2023-08-01T13:54:44;7.20;;;3.90;;
5543;SDS011;2795;47.652;13.128;2023-08-01T13:57:10;6.13;;;4.17;;
5543;SDS011;2795;47.652;13.128;2023-08-01T13:59:37;10.20;;;4.30;;
5543;SDS011;2795;47.652;13.128;2023-08-01T14:02:04;7.17;;;4.10;;
5543;SDS011;2795;47.652;13.128;2023-08-01T14:04:35;4.60;;;3.33;;
5543;SDS011;2795;47.652;13.128;2023-08-01T14:07:01;9.37;;;3.83;;
5543;SDS011;2795;47.652;13.128;2023-08-01T14:09:29;6.30;;;3.50;;
5543;SDS011;2795;47.652;13.128;2023-08-01T14:11:58;8.83;;;3.97;;
5543;SDS011;2795;47.652;13.128;2023-08-01T14:14:25;6.97;;;3.77;;
5543;SDS011;2795;47.652;13.128;2023-08-01T14:16:53;5.83;;;3.40;;
5543;SDS011;2795;47.652;13.128;2023-08-01T14:19:22;7.80;;;3.93;;
5543;SDS011;2795;47.652;13.128;2023-08-01T14:21:48;6.87;;;3.87;;
5543;SDS011;2795;47.652;13.128;2023-08-01T14:24:15;5.93;;;3.40;;
5543;SDS011;2795;47.652;13.128;2023-08-01T14:26:41;12.60;;;3.60;;
5543;SDS011;2795;47.652;13.128;2023-08-01T14:29:08;5.40;;;3.57;;
5543;SDS011;2795;47.652;13.128;2023-08-01T14:31:35;6.43;;;3.30;;
5543;SDS011;2795;47.652;13.128;2023-08-01T14:34:02;9.00;;;3.37;;
5543;SDS011;2795;47.652;13.128;2023-08-01T14:36:29;10.57;;;4.03;;
5543;SDS011;2795;47.652;13.128;2023-08-01T14:38:55;9.30;;;4.03;;
5543;SDS011;2795;47.652;13.128;2023-08-01T14:41:30;8.30;;;3.73;;
5543;SDS011;2795;47.652;13.128;2023-08-01T14:44:17;7.37;;;3.70;;
5543;SDS011;2795;47.652;13.128;2023-08-01T14:46:43;9.90;;;4.17;;
5543;SDS011;2795;47.652;13.128;2023-08-01T14:49:10;6.23;;;4.10;;
5543;SDS011;2795;47.652;13.128;2023-08-01T14:51:37;12.20;;;4.60;;
5543;SDS011;2795;47.652;13.128;2023-08-01T14:54:03;7.07;;;3.90;;
5543;SDS011;2795;47.652;13.128;2023-08-01T14:56:30;10.73;;;4.03;;
5543;SDS011;2795;47.652;13.128;2023-08-01T14:58:56;8.50;;;4.17;;
5543;SDS011;2795;47.652;13.128;2023-08-01T15:01:24;10.07;;;4.60;;
5543;SDS011;2795;47.652;13.128;2023-08-01T15:03:50;8.17;;;4.20;;